sensor_id;sensor_type;location;lat;lon;timestamp;pressure;altitude;pressure_sealevel;temperature;humidity
75219;BME280;63801;49.414;19.474;2023-08-31T00:01:59;93119.66;;;15.53;78.25
75219;BME280;63801;49.414;19.474;2023-08-31T00:03:59;93114.56;;;15.55;78.18
75219;BME280;63801;49.414;19.474;2023-08-31T00:06:03;93114.19;;;15.57;78.46
75219;BME280;63801;49.414;19.474;2023-08-31T00:08:04;93103.72;;;15.55;78.43
75219;BME280;63801;49.414;19.474;2023-08-31T00:10:05;93107.22;;;15.52;78.16
75219;BME280;63801;49.414;19.474;2023-08-31T00:12:09;93109.53;;;15.50;78.27
75219;BME280;63801;49.414;19.474;2023-08-31T00:14:09;93107.59;;;15.51;78.42
75219;BME280;63801;49.414;19.474;2023-08-31T00:16:10;93107.59;;;15.51;78.51
75219;BME280;63801;49.414;19.474;2023-08-31T00:18:12;93109.16;;;15.48;78.57
75219;BME280;63801;49.414;19.474;2023-08-31T00:20:12;93106.81;;;15.47;78.57
75219;BME280;63801;49.414;19.474;2023-08-31T00:22:13;93095.56;;;15.45;78.54
75219;BME280;63801;49.414;19.474;2023-08-31T00:24:13;93105.66;;;15.51;78.75
75219;BME280;63801;49.414;19.474;2023-08-31T00:26:14;93085.09;;;15.43;78.95
75219;BME280;63801;49.414;19.474;2023-08-31T00:28:15;93109.13;;;15.55;79.09
75219;BME280;63801;49.414;19.474;2023-08-31T00:30:18;93100.63;;;15.53;78.85
75219;BME280;63801;49.414;19.474;2023-08-31T00:32:18;93109.13;;;15.55;78.76
75219;BME280;63801;49.414;19.474;2023-08-31T00:34:19;93109.91;;;15.56;78.62
75219;BME280;63801;49.414;19.474;2023-08-31T00:36:20;93111.09;;;15.51;78.68
75219;BME280;63801;49.414;19.474;2023-08-31T00:38:20;93114.59;;;15.52;78.77
75219;BME280;63801;49.414;19.474;2023-08-31T00:40:20;93113.81;;;15.51;78.75
75219;BME280;63801;49.414;19.474;2023-08-31T00:42:21;93116.94;;;15.53;78.66
75219;BME280;63801;49.414;19.474;2023-08-31T00:44:22;93111.09;;;15.55;78.75
75219;BME280;63801;49.414;19.474;2023-08-31T00:46:22;93108.38;;;15.55;78.76
75219;BME280;63801;49.414;19.474;2023-08-31T00:48:22;93109.13;;;15.55;78.84
75219;BME280;63801;49.414;19.474;2023-08-31T00:50:23;93109.13;;;15.55;78.89
75219;BME280;63801;49.414;19.474;2023-08-31T00:52:23;93106.44;;;15.55;78.80
75219;BME280;63801;49.414;19.474;2023-08-31T00:54:24;93106.03;;;15.50;78.79
75219;BME280;63801;49.414;19.474;2023-08-31T00:56:25;93111.44;;;15.50;78.89
75219;BME280;63801;49.414;19.474;2023-08-31T00:58:26;93117.69;;;15.47;78.60
75219;BME280;63801;49.414;19.474;2023-08-31T01:05:18;93133.63;;;15.38;79.56
75219;BME280;63801;49.414;19.474;2023-08-31T01:07:34;93126.66;;;15.29;79.41
75219;BME280;63801;49.414;19.474;2023-08-31T01:09:39;93130.19;;;15.26;79.64
75219;BME280;63801;49.414;19.474;2023-08-31T01:11:56;93127.84;;;15.25;79.87
75219;BME280;63801;49.414;19.474;2023-08-31T01:14:02;93135.59;;;15.23;79.98
75219;BME280;63801;49.414;19.474;2023-08-31T01:16:08;93136.00;;;15.25;80.02
75219;BME280;63801;49.414;19.474;2023-08-31T01:18:11;93118.19;;;15.13;79.67
75219;BME280;63801;49.414;19.474;2023-08-31T01:20:14;93133.28;;;15.21;79.60
75219;BME280;63801;49.414;19.474;2023-08-31T01:22:33;93139.09;;;15.20;79.56
75219;BME280;63801;49.414;19.474;2023-08-31T01:24:38;93130.97;;;15.16;79.91
75219;BME280;63801;49.414;19.474;2023-08-31T01:26:39;93127.09;;;15.14;79.58
75219;BME280;63801;49.414;19.474;2023-08-31T01:28:40;93137.56;;;15.15;79.44
75219;BME280;63801;49.414;19.474;2023-08-31T01:30:41;93134.84;;;15.15;79.79
75219;BME280;63801;49.414;19.474;2023-08-31T01:32:45;93131.34;;;15.15;79.46
75219;BME280;63801;49.414;19.474;2023-08-31T01:34:45;93119.38;;;14.98;79.50
75219;BME280;63801;49.414;19.474;2023-08-31T01:36:48;93131.34;;;15.15;79.39
75219;BME280;63801;49.414;19.474;2023-08-31T01:38:55;93135.22;;;15.14;79.55
75219;BME280;63801;49.414;19.474;2023-08-31T01:41:04;93138.34;;;15.16;79.66
75219;BME280;63801;49.414;19.474;2023-08-31T01:43:06;93135.63;;;15.12;79.68
75219;BME280;63801;49.414;19.474;2023-08-31T01:45:08;93143.38;;;15.17;79.42
75219;BME280;63801;49.414;19.474;2023-08-31T01:47:09;93142.63;;;15.17;79.64
75219;BME280;63801;49.414;19.474;2023-08-31T01:49:10;93147.25;;;15.16;79.70
75219;BME280;63801;49.414;19.474;2023-08-31T01:51:11;93141.06;;;15.16;79.60
75219;BME280;63801;49.414;19.474;2023-08-31T01:53:11;93141.41;;;15.18;79.70
75219;BME280;63801;49.414;19.474;2023-08-31T01:55:12;93141.84;;;15.16;79.44
75219;BME280;63801;49.414;19.474;2023-08-31T01:57:15;93145.31;;;15.17;79.52
75219;BME280;63801;49.414;19.474;2023-08-31T01:59:16;93144.91;;;15.18;79.65
75219;BME280;63801;49.414;19.474;2023-08-31T02:01:16;93142.19;;;15.18;79.62
75219;BME280;63801;49.414;19.474;2023-08-31T02:03:18;93148.03;;;15.20;79.75
75219;BME280;63801;49.414;19.474;2023-08-31T02:05:18;93142.63;;;15.17;79.62
75219;BME280;63801;49.414;19.474;2023-08-31T02:07:18;93132.91;;;15.19;79.65
75219;BME280;63801;49.414;19.474;2023-08-31T02:09:19;93134.81;;;15.22;79.78
75219;BME280;63801;49.414;19.474;2023-08-31T02:11:20;93141.41;;;15.25;79.68
75219;BME280;63801;49.414;19.474;2023-08-31T02:13:20;93144.13;;;15.25;79.92
75219;BME280;63801;49.414;19.474;2023-08-31T02:15:20;93144.53;;;15.23;79.97
75219;BME280;63801;49.414;19.474;2023-08-31T02:17:21;93150.72;;;15.24;79.73
75219;BME280;63801;49.414;19.474;2023-08-31T02:19:21;93144.94;;;15.22;79.53
75219;BME280;63801;49.414;19.474;2023-08-31T02:21:21;93132.50;;;15.14;79.48
75219;BME280;63801;49.414;19.474;2023-08-31T02:23:23;93143.38;;;15.21;79.75
75219;BME280;63801;49.414;19.474;2023-08-31T02:25:23;93142.59;;;15.20;79.73
75219;BME280;63801;49.414;19.474;2023-08-31T02:27:23;93139.88;;;15.20;80.01
75219;BME280;63801;49.414;19.474;2023-08-31T02:29:24;93144.94;;;15.22;79.96
75219;BME280;63801;49.414;19.474;2023-08-31T02:31:24;93148.41;;;15.22;79.72
75219;BME280;63801;49.414;19.474;2023-08-31T02:33:25;93127.88;;;15.11;80.08
75219;BME280;63801;49.414;19.474;2023-08-31T02:35:25;93151.53;;;15.21;79.79
75219;BME280;63801;49.414;19.474;2023-08-31T02:37:25;93148.81;;;15.21;80.15
75219;BME280;63801;49.414;19.474;2023-08-31T02:39:26;93151.88;;;15.23;79.90
75219;BME280;63801;49.414;19.474;2023-08-31T02:41:26;93151.88;;;15.23;80.06
75219;BME280;63801;49.414;19.474;2023-08-31T02:43:26;93152.28;;;15.25;80.22
75219;BME280;63801;49.414;19.474;2023-08-31T02:45:28;93149.94;;;15.23;80.10
75219;BME280;63801;49.414;19.474;2023-08-31T02:47:28;93154.59;;;15.23;79.92
75219;BME280;63801;49.414;19.474;2023-08-31T02:49:29;93160.03;;;15.23;80.06
75219;BME280;63801;49.414;19.474;2023-08-31T02:51:29;93158.09;;;15.20;80.01
75219;BME280;63801;49.414;19.474;2023-08-31T02:53:30;93160.44;;;15.18;79.69
75219;BME280;63801;49.414;19.474;2023-08-31T02:55:33;93168.59;;;15.14;80.11
75219;BME280;63801;49.414;19.474;2023-08-31T02:57:34;93167.81;;;15.10;79.82
75219;BME280;63801;49.414;19.474;2023-08-31T02:59:34;93160.47;;;15.04;79.98
75219;BME280;63801;49.414;19.474;2023-08-31T03:01:37;93168.22;;;15.09;79.98
75219;BME280;63801;49.414;19.474;2023-08-31T03:03:40;93169.78;;;15.06;79.81
75219;BME280;63801;49.414;19.474;2023-08-31T03:05:40;93164.38;;;14.99;80.23
75219;BME280;63801;49.414;19.474;2023-08-31T03:07:41;93176.75;;;15.04;80.24
75219;BME280;63801;49.414;19.474;2023-08-31T03:09:41;93172.13;;;15.04;80.27
75219;BME280;63801;49.414;19.474;2023-08-31T03:11:41;93190.72;;;15.06;80.23
75219;BME280;63801;49.414;19.474;2023-08-31T03:13:42;93181.44;;;15.00;81.00
75219;BME280;63801;49.414;19.474;2023-08-31T03:15:42;93167.47;;;14.91;80.24
75219;BME280;63801;49.414;19.474;2023-08-31T03:17:42;93181.03;;;14.98;80.80
75219;BME280;63801;49.414;19.474;2023-08-31T03:19:43;93186.84;;;14.93;80.34
75219;BME280;63801;49.414;19.474;2023-08-31T03:21:43;93176.78;;;14.86;80.83
75219;BME280;63801;49.414;19.474;2023-08-31T03:23:43;93179.88;;;14.84;80.69
75219;BME280;63801;49.414;19.474;2023-08-31T03:25:43;93187.63;;;14.82;80.85
75219;BME280;63801;49.414;19.474;2023-08-31T03:27:44;93177.53;;;14.79;80.95
75219;BME280;63801;49.414;19.474;2023-08-31T03:29:44;93186.09;;;14.78;80.76
75219;BME280;63801;49.414;19.474;2023-08-31T03:31:44;93171.34;;;14.68;80.99
75219;BME280;63801;49.414;19.474;2023-08-31T03:33:45;93189.97;;;14.80;80.60
75219;BME280;63801;49.414;19.474;2023-08-31T03:35:45;93188.81;;;14.81;80.92
75219;BME280;63801;49.414;19.474;2023-08-31T03:37:49;93193.44;;;14.84;80.62
75219;BME280;63801;49.414;19.474;2023-08-31T03:39:49;93192.28;;;14.86;80.88
75219;BME280;63801;49.414;19.474;2023-08-31T03:41:49;93189.56;;;14.86;80.95
75219;BME280;63801;49.414;19.474;2023-08-31T03:43:50;93164.38;;;14.67;80.78
75219;BME280;63801;49.414;19.474;2023-08-31T03:45:54;93196.94;;;14.89;80.62
75219;BME280;63801;49.414;19.474;2023-08-31T03:47:57;93201.19;;;14.90;80.80
75219;BME280;63801;49.414;19.474;2023-08-31T03:49:58;93199.25;;;14.90;80.62
75219;BME280;63801;49.414;19.474;2023-08-31T03:51:59;93194.22;;;14.89;80.80
75219;BME280;63801;49.414;19.474;2023-08-31T03:53:59;93188.78;;;14.85;80.57
75219;BME280;63801;49.414;19.474;2023-08-31T03:55:59;93203.13;;;14.93;80.78
75219;BME280;63801;49.414;19.474;2023-08-31T03:58:00;93209.34;;;14.93;80.83
75219;BME280;63801;49.414;19.474;2023-08-31T04:00:00;93200.03;;;14.87;80.88
75219;BME280;63801;49.414;19.474;2023-08-31T04:02:00;93204.31;;;14.95;80.93
75219;BME280;63801;49.414;19.474;2023-08-31T04:04:01;93217.09;;;14.98;80.61
75219;BME280;63801;49.414;19.474;2023-08-31T04:06:02;93209.31;;;15.00;80.91
75219;BME280;63801;49.414;19.474;2023-08-31T04:08:03;93213.59;;;15.01;80.98
75219;BME280;63801;49.414;19.474;2023-08-31T04:10:03;93214.78;;;15.04;80.68
75219;BME280;63801;49.414;19.474;2023-08-31T04:12:04;93205.06;;;14.99;80.69
75219;BME280;63801;49.414;19.474;2023-08-31T04:14:04;93200.78;;;15.05;81.01
75219;BME280;63801;49.414;19.474;2023-08-31T04:16:05;93210.88;;;15.01;80.81
75219;BME280;63801;49.414;19.474;2023-08-31T04:18:05;93222.13;;;15.07;80.68
75219;BME280;63801;49.414;19.474;2023-08-31T04:20:06;93217.06;;;15.05;80.51
75219;BME280;63801;49.414;19.474;2023-08-31T04:22:07;93216.31;;;15.01;80.44
75219;BME280;63801;49.414;19.474;2023-08-31T04:24:07;93220.19;;;15.04;80.83
75219;BME280;63801;49.414;19.474;2023-08-31T04:26:11;93221.72;;;15.05;80.79
75219;BME280;63801;49.414;19.474;2023-08-31T04:28:13;93222.50;;;15.02;80.84
75219;BME280;63801;49.414;19.474;2023-08-31T04:30:14;93218.25;;;15.01;80.65
75219;BME280;63801;49.414;19.474;2023-08-31T04:32:14;93231.84;;;15.08;80.79
75219;BME280;63801;49.414;19.474;2023-08-31T04:34:15;93228.34;;;15.04;80.93
75219;BME280;63801;49.414;19.474;2023-08-31T04:36:16;93235.31;;;15.01;80.96
75219;BME280;63801;49.414;19.474;2023-08-31T04:38:16;93231.81;;;14.97;80.97
75219;BME280;63801;49.414;19.474;2023-08-31T04:40:17;93236.47;;;14.93;80.81
75219;BME280;63801;49.414;19.474;2023-08-31T04:42:17;93239.19;;;14.90;80.79
75219;BME280;63801;49.414;19.474;2023-08-31T04:44:18;93227.16;;;14.83;80.71
75219;BME280;63801;49.414;19.474;2023-08-31T04:46:18;93236.88;;;14.84;80.90
75219;BME280;63801;49.414;19.474;2023-08-31T04:48:18;93241.50;;;14.88;81.07
75219;BME280;63801;49.414;19.474;2023-08-31T04:50:19;93233.00;;;14.86;80.92
75219;BME280;63801;49.414;19.474;2023-08-31T04:52:19;93245.00;;;14.92;81.11
75219;BME280;63801;49.414;19.474;2023-08-31T04:54:19;93245.78;;;14.92;81.06
75219;BME280;63801;49.414;19.474;2023-08-31T04:56:20;93264.00;;;14.92;80.86
75219;BME280;63801;49.414;19.474;2023-08-31T04:58:20;93252.38;;;14.91;81.11
75219;BME280;63801;49.414;19.474;2023-08-31T05:00:20;93264.00;;;14.92;81.23
75219;BME280;63801;49.414;19.474;2023-08-31T05:02:21;93263.25;;;14.95;81.25
75219;BME280;63801;49.414;19.474;2023-08-31T05:04:21;93262.84;;;14.96;81.35
75219;BME280;63801;49.414;19.474;2023-08-31T05:06:23;93273.69;;;14.93;80.69
75219;BME280;63801;49.414;19.474;2023-08-31T05:08:23;93259.34;;;14.85;80.97
75219;BME280;63801;49.414;19.474;2023-08-31T05:10:24;93273.31;;;14.98;81.26
75219;BME280;63801;49.414;19.474;2023-08-31T05:12:24;93274.88;;;14.99;81.33
75219;BME280;63801;49.414;19.474;2023-08-31T05:14:25;93267.88;;;15.01;81.10
75219;BME280;63801;49.414;19.474;2023-08-31T05:16:25;93278.34;;;15.10;80.97
75219;BME280;63801;49.414;19.474;2023-08-31T05:18:25;93276.03;;;15.12;81.17
75219;BME280;63801;49.414;19.474;2023-08-31T05:20:26;93283.81;;;15.13;81.28
75219;BME280;63801;49.414;19.474;2023-08-31T05:22:26;93280.69;;;15.15;80.94
75219;BME280;63801;49.414;19.474;2023-08-31T05:24:26;93283.81;;;15.17;80.82
75219;BME280;63801;49.414;19.474;2023-08-31T05:26:26;93292.72;;;15.21;81.04
75219;BME280;63801;49.414;19.474;2023-08-31T05:28:27;93294.66;;;15.24;80.72
75219;BME280;63801;49.414;19.474;2023-08-31T05:30:28;93277.59;;;15.20;81.08
75219;BME280;63801;49.414;19.474;2023-08-31T05:32:28;93292.34;;;15.29;80.59
75219;BME280;63801;49.414;19.474;2023-08-31T05:34:29;93294.66;;;15.27;80.62
75219;BME280;63801;49.414;19.474;2023-08-31T05:36:32;93296.22;;;15.28;80.58
75219;BME280;63801;49.414;19.474;2023-08-31T05:38:33;93291.19;;;15.31;80.73
75219;BME280;63801;49.414;19.474;2023-08-31T05:40:33;93294.66;;;15.31;80.64
75219;BME280;63801;49.414;19.474;2023-08-31T05:42:33;93288.44;;;15.34;80.70
75219;BME280;63801;49.414;19.474;2023-08-31T05:44:34;93295.03;;;15.37;80.36
75219;BME280;63801;49.414;19.474;2023-08-31T05:46:34;93302.41;;;15.36;80.40
75219;BME280;63801;49.414;19.474;2023-08-31T05:48:35;93300.88;;;15.35;80.42
75219;BME280;63801;49.414;19.474;2023-08-31T05:50:36;93290.00;;;15.28;80.54
75219;BME280;63801;49.414;19.474;2023-08-31T05:52:39;93310.56;;;15.36;80.38
75219;BME280;63801;49.414;19.474;2023-08-31T05:54:44;93309.41;;;15.37;80.32
75219;BME280;63801;49.414;19.474;2023-08-31T05:56:44;93307.84;;;15.36;80.07
75219;BME280;63801;49.414;19.474;2023-08-31T05:58:44;93312.50;;;15.39;80.37
75219;BME280;63801;49.414;19.474;2023-08-31T06:00:45;93304.72;;;15.41;80.45
75219;BME280;63801;49.414;19.474;2023-08-31T06:02:45;93310.94;;;15.45;80.33
75219;BME280;63801;49.414;19.474;2023-08-31T06:04:46;93317.94;;;15.46;80.38
75219;BME280;63801;49.414;19.474;2023-08-31T06:06:46;93317.56;;;15.48;80.12
75219;BME280;63801;49.414;19.474;2023-08-31T06:08:47;93319.50;;;15.51;80.13
75219;BME280;63801;49.414;19.474;2023-08-31T06:10:48;93323.78;;;15.52;79.89
75219;BME280;63801;49.414;19.474;2023-08-31T06:12:49;93316.78;;;15.51;80.09
75219;BME280;63801;49.414;19.474;2023-08-31T06:14:50;93317.97;;;15.53;80.16
75219;BME280;63801;49.414;19.474;2023-08-31T06:16:50;93318.34;;;15.55;80.20
75219;BME280;63801;49.414;19.474;2023-08-31T06:18:52;93290.00;;;15.42;79.94
75219;BME280;63801;49.414;19.474;2023-08-31T06:20:53;93310.56;;;15.64;80.00
75219;BME280;63801;49.414;19.474;2023-08-31T06:22:53;93310.97;;;15.70;79.54
75219;BME280;63801;49.414;19.474;2023-08-31T06:24:53;93316.38;;;15.84;80.16
75219;BME280;63801;49.414;19.474;2023-08-31T06:26:54;93311.66;;;15.99;80.48
75219;BME280;63801;49.414;19.474;2023-08-31T06:28:56;93306.22;;;16.02;80.06
75219;BME280;63801;49.414;19.474;2023-08-31T06:30:56;93313.94;;;16.22;78.83
75219;BME280;63801;49.414;19.474;2023-08-31T06:32:56;93310.84;;;16.20;79.39
75219;BME280;63801;49.414;19.474;2023-08-31T06:34:57;93317.41;;;16.26;78.89
75219;BME280;63801;49.414;19.474;2023-08-31T06:36:57;93322.44;;;16.31;79.12
75219;BME280;63801;49.414;19.474;2023-08-31T06:38:58;93331.00;;;16.33;78.51
75219;BME280;63801;49.414;19.474;2023-08-31T06:40:58;93332.53;;;16.30;78.26
75219;BME280;63801;49.414;19.474;2023-08-31T06:42:59;93322.06;;;16.25;78.44
75219;BME280;63801;49.414;19.474;2023-08-31T06:44:59;93336.44;;;16.33;78.30
75219;BME280;63801;49.414;19.474;2023-08-31T06:47:00;93335.63;;;16.39;78.73
75219;BME280;63801;49.414;19.474;2023-08-31T06:49:00;93330.53;;;16.52;78.51
75219;BME280;63801;49.414;19.474;2023-08-31T06:51:00;93332.06;;;16.64;78.72
75219;BME280;63801;49.414;19.474;2023-08-31T06:53:03;93330.06;;;16.71;78.18
75219;BME280;63801;49.414;19.474;2023-08-31T06:55:04;93328.50;;;16.77;78.11
75219;BME280;63801;49.414;19.474;2023-08-31T06:57:06;93333.16;;;16.73;77.54
75219;BME280;63801;49.414;19.474;2023-08-31T06:59:06;93335.88;;;16.73;77.29
75219;BME280;63801;49.414;19.474;2023-08-31T07:01:06;93334.00;;;16.63;76.81
75219;BME280;63801;49.414;19.474;2023-08-31T07:03:07;93344.91;;;16.63;77.45
75219;BME280;63801;49.414;19.474;2023-08-31T07:05:08;93347.97;;;16.65;77.09
75219;BME280;63801;49.414;19.474;2023-08-31T07:07:08;93340.22;;;16.64;76.48
75219;BME280;63801;49.414;19.474;2023-08-31T07:09:09;93348.00;;;16.61;76.67
75219;BME280;63801;49.414;19.474;2023-08-31T07:11:10;93346.03;;;16.73;76.95
75219;BME280;63801;49.414;19.474;2023-08-31T07:13:10;93344.81;;;16.81;76.12
75219;BME280;63801;49.414;19.474;2023-08-31T07:15:10;93352.56;;;16.82;76.35
75219;BME280;63801;49.414;19.474;2023-08-31T07:17:11;93346.78;;;16.77;75.69
75219;BME280;63801;49.414;19.474;2023-08-31T07:19:11;93348.31;;;16.78;75.73
75219;BME280;63801;49.414;19.474;2023-08-31T07:21:11;93349.88;;;16.75;75.29
75219;BME280;63801;49.414;19.474;2023-08-31T07:23:12;93352.97;;;16.81;75.96
75219;BME280;63801;49.414;19.474;2023-08-31T07:25:12;93349.44;;;16.84;75.61
75219;BME280;63801;49.414;19.474;2023-08-31T07:27:13;93352.47;;;17.00;75.20
75219;BME280;63801;49.414;19.474;2023-08-31T07:29:13;93357.50;;;17.05;74.66
75219;BME280;63801;49.414;19.474;2023-08-31T07:31:13;93353.28;;;16.93;74.10
75219;BME280;63801;49.414;19.474;2023-08-31T07:33:15;93358.34;;;16.95;74.38
75219;BME280;63801;49.414;19.474;2023-08-31T07:35:15;93366.94;;;16.90;74.28
75219;BME280;63801;49.414;19.474;2023-08-31T07:37:16;93361.88;;;16.88;74.32
75219;BME280;63801;49.414;19.474;2023-08-31T07:39:16;93373.53;;;16.89;74.46
75219;BME280;63801;49.414;19.474;2023-08-31T07:41:19;93375.13;;;16.83;74.81
75219;BME280;63801;49.414;19.474;2023-08-31T07:43:20;93384.81;;;16.87;74.40
75219;BME280;63801;49.414;19.474;2023-08-31T07:45:20;93374.38;;;16.75;74.27
75219;BME280;63801;49.414;19.474;2023-08-31T07:47:20;93385.25;;;16.86;74.05
75219;BME280;63801;49.414;19.474;2023-08-31T07:49:21;93383.69;;;16.85;73.98
75219;BME280;63801;49.414;19.474;2023-08-31T07:51:21;93391.44;;;16.90;73.99
75219;BME280;63801;49.414;19.474;2023-08-31T07:53:23;93396.13;;;16.86;73.65
75219;BME280;63801;49.414;19.474;2023-08-31T07:55:23;93399.63;;;16.83;73.29
75219;BME280;63801;49.414;19.474;2023-08-31T07:57:24;93403.50;;;16.89;72.87
75219;BME280;63801;49.414;19.474;2023-08-31T07:59:24;93405.81;;;16.94;73.25
75219;BME280;63801;49.414;19.474;2023-08-31T08:01:24;93403.81;;;17.01;72.97
75219;BME280;63801;49.414;19.474;2023-08-31T08:03:25;93400.69;;;17.06;73.05
75219;BME280;63801;49.414;19.474;2023-08-31T08:05:27;93399.84;;;17.13;72.42
75219;BME280;63801;49.414;19.474;2023-08-31T08:07:27;93399.84;;;17.20;71.96
75219;BME280;63801;49.414;19.474;2023-08-31T08:09:27;93399.78;;;17.27;72.26
75219;BME280;63801;49.414;19.474;2023-08-31T08:11:28;93382.28;;;17.25;71.80
75219;BME280;63801;49.414;19.474;2023-08-31T08:13:29;93414.00;;;17.56;72.11
75219;BME280;63801;49.414;19.474;2023-08-31T08:15:30;93414.34;;;17.69;71.44
75219;BME280;63801;49.414;19.474;2023-08-31T08:17:30;93414.25;;;17.83;71.62
75219;BME280;63801;49.414;19.474;2023-08-31T08:19:30;93410.59;;;18.00;71.88
75219;BME280;63801;49.414;19.474;2023-08-31T08:21:31;93412.38;;;18.17;69.96
75219;BME280;63801;49.414;19.474;2023-08-31T08:23:31;93412.28;;;18.24;70.14
75219;BME280;63801;49.414;19.474;2023-08-31T08:25:32;93413.03;;;18.32;70.31
75219;BME280;63801;49.414;19.474;2023-08-31T08:27:32;93417.25;;;18.36;69.93
75219;BME280;63801;49.414;19.474;2023-08-31T08:29:33;93417.56;;;18.42;69.89
75219;BME280;63801;49.414;19.474;2023-08-31T08:31:33;93417.19;;;18.44;69.62
75219;BME280;63801;49.414;19.474;2023-08-31T08:33:33;93421.53;;;18.37;68.84
75219;BME280;63801;49.414;19.474;2023-08-31T08:35:34;93407.56;;;18.28;68.11
75219;BME280;63801;49.414;19.474;2023-08-31T08:37:34;93420.03;;;18.29;68.77
75219;BME280;63801;49.414;19.474;2023-08-31T08:39:34;93428.63;;;18.28;69.30
75219;BME280;63801;49.414;19.474;2023-08-31T08:41:35;93427.88;;;18.27;69.18
75219;BME280;63801;49.414;19.474;2023-08-31T08:43:37;93434.06;;;18.31;68.94
75219;BME280;63801;49.414;19.474;2023-08-31T08:45:43;93437.97;;;18.30;68.41
75219;BME280;63801;49.414;19.474;2023-08-31T08:47:47;93443.88;;;18.25;68.44
75219;BME280;63801;49.414;19.474;2023-08-31T08:49:48;93438.91;;;18.13;67.87
75219;BME280;63801;49.414;19.474;2023-08-31T08:51:49;93435.88;;;18.04;67.70
75219;BME280;63801;49.414;19.474;2023-08-31T08:53:51;93444.13;;;17.93;67.59
75219;BME280;63801;49.414;19.474;2023-08-31T08:55:52;93442.72;;;17.78;67.80
75219;BME280;63801;49.414;19.474;2023-08-31T08:57:53;93444.69;;;17.71;68.03
75219;BME280;63801;49.414;19.474;2023-08-31T08:59:53;93440.06;;;17.57;67.85
75219;BME280;63801;49.414;19.474;2023-08-31T09:01:53;93430.81;;;17.44;67.78
75219;BME280;63801;49.414;19.474;2023-08-31T09:03:54;93433.53;;;17.44;67.84
75219;BME280;63801;49.414;19.474;2023-08-31T09:05:54;93450.69;;;17.48;68.42
75219;BME280;63801;49.414;19.474;2023-08-31T09:08:08;93444.81;;;17.49;68.23
75219;BME280;63801;49.414;19.474;2023-08-31T09:10:13;93445.16;;;17.55;68.63
75219;BME280;63801;49.414;19.474;2023-08-31T09:12:13;93444.00;;;17.60;68.27
75219;BME280;63801;49.414;19.474;2023-08-31T09:14:18;93445.50;;;17.68;68.77
75219;BME280;63801;49.414;19.474;2023-08-31T09:16:29;93443.50;;;17.75;68.11
75219;BME280;63801;49.414;19.474;2023-08-31T09:18:31;93443.41;;;17.86;68.16
75219;BME280;63801;49.414;19.474;2023-08-31T09:20:42;93451.53;;;17.97;68.16
75219;BME280;63801;49.414;19.474;2023-08-31T09:22:43;93452.59;;;18.06;68.18
75219;BME280;63801;49.414;19.474;2023-08-31T09:24:48;93443.56;;;18.16;68.04
75219;BME280;63801;49.414;19.474;2023-08-31T09:26:58;93452.13;;;18.18;66.61
75219;BME280;63801;49.414;19.474;2023-08-31T09:28:59;93449.06;;;18.13;67.33
75219;BME280;63801;49.414;19.474;2023-08-31T09:31:07;93456.25;;;18.33;66.92
75219;BME280;63801;49.414;19.474;2023-08-31T09:33:09;93458.03;;;18.51;67.29
75219;BME280;63801;49.414;19.474;2023-08-31T09:35:10;93449.78;;;18.61;67.12
75219;BME280;63801;49.414;19.474;2023-08-31T09:37:11;93467.84;;;18.85;67.19
75219;BME280;63801;49.414;19.474;2023-08-31T09:39:13;93463.75;;;19.04;65.98
75219;BME280;63801;49.414;19.474;2023-08-31T09:41:14;93460.56;;;19.09;65.43
75219;BME280;63801;49.414;19.474;2023-08-31T09:43:19;93461.94;;;19.24;65.11
75219;BME280;63801;49.414;19.474;2023-08-31T09:45:31;93475.72;;;19.48;64.33
75219;BME280;63801;49.414;19.474;2023-08-31T09:47:35;93475.53;;;19.62;63.04
75219;BME280;63801;49.414;19.474;2023-08-31T09:49:36;93476.38;;;19.59;61.98
75219;BME280;63801;49.414;19.474;2023-08-31T09:51:42;93476.81;;;19.54;63.24
75219;BME280;63801;49.414;19.474;2023-08-31T09:53:45;93479.03;;;19.62;63.03
75219;BME280;63801;49.414;19.474;2023-08-31T09:55:48;93485.91;;;19.74;62.96
75219;BME280;63801;49.414;19.474;2023-08-31T09:57:49;93485.03;;;19.81;62.24
75219;BME280;63801;49.414;19.474;2023-08-31T09:59:50;93478.03;;;19.80;61.93
75219;BME280;63801;49.414;19.474;2023-08-31T10:01:51;93477.28;;;19.76;61.17
75219;BME280;63801;49.414;19.474;2023-08-31T10:03:51;93482.38;;;19.77;61.11
75219;BME280;63801;49.414;19.474;2023-08-31T10:05:53;93479.19;;;19.79;61.09
75219;BME280;63801;49.414;19.474;2023-08-31T10:07:54;93486.28;;;19.76;60.42
75219;BME280;63801;49.414;19.474;2023-08-31T10:09:56;93470.47;;;19.87;60.62
75219;BME280;63801;49.414;19.474;2023-08-31T10:11:57;93477.44;;;19.92;59.86
75219;BME280;63801;49.414;19.474;2023-08-31T10:13:58;93475.78;;;19.98;59.64
75219;BME280;63801;49.414;19.474;2023-08-31T10:15:59;93469.47;;;20.04;59.94
75219;BME280;63801;49.414;19.474;2023-08-31T10:18:01;93488.28;;;20.26;59.65
75219;BME280;63801;49.414;19.474;2023-08-31T10:20:03;93470.09;;;20.39;59.82
75219;BME280;63801;49.414;19.474;2023-08-31T10:22:05;93488.19;;;20.56;59.73
75219;BME280;63801;49.414;19.474;2023-08-31T10:24:06;93485.53;;;20.72;59.36
75219;BME280;63801;49.414;19.474;2023-08-31T10:26:06;93485.38;;;21.02;59.65
75219;BME280;63801;49.414;19.474;2023-08-31T10:28:19;93485.50;;;21.19;57.75
75219;BME280;63801;49.414;19.474;2023-08-31T10:32:23;93485.59;;;21.51;56.37
75219;BME280;63801;49.414;19.474;2023-08-31T10:34:37;93484.47;;;21.68;57.22
75219;BME280;63801;49.414;19.474;2023-08-31T10:36:41;93489.22;;;22.04;57.86
75219;BME280;63801;49.414;19.474;2023-08-31T10:38:59;93480.31;;;22.48;57.33
75219;BME280;63801;49.414;19.474;2023-08-31T10:43:15;93483.19;;;22.57;51.44
75219;BME280;63801;49.414;19.474;2023-08-31T10:45:22;93476.63;;;22.38;51.13